Time;durP1;ratioP1;P1;durP2;ratioP2;P2;SDS_P1;SDS_P2;PMS_P1;PMS_P2;Temp;Humidity;BMP_temperature;BMP_pressure;BME280_temperature;BME280_humidity;BME280_pressure;Samples;Min_cycle;Max_cycle;Signal;HPM_P1;HPM_P2
2021/05/05 00:00:23;;;;;;;6.78;0.98;;;6.70;99.90;;;;;;5071567;28;20040;-73
2021/05/05 00:02:49;;;;;;;4.30;1.17;;;6.60;99.90;;;;;;5071884;28;20028;-73
2021/05/05 00:05:15;;;;;;;7.70;1.45;;;6.50;99.90;;;;;;5071394;28;20024;-73
2021/05/05 00:07:42;;;;;;;10.98;1.42;;;6.50;99.90;;;;;;5071196;28;20032;-73
2021/05/05 00:10:08;;;;;;;5.32;1.30;;;6.40;99.90;;;;;;5071800;28;20032;-73
2021/05/05 00:12:35;;;;;;;7.13;1.42;;;6.40;99.90;;;;;;5071324;28;20110;-73
2021/05/05 00:15:02;;;;;;;8.75;1.60;;;6.50;99.90;;;;;;5070983;28;20029;-74
2021/05/05 00:17:27;;;;;;;6.07;2.17;;;6.50;99.90;;;;;;5071498;28;20032;-72
2021/05/05 00:19:53;;;;;;;8.88;2.97;;;6.50;99.90;;;;;;5071750;28;20070;-72
2021/05/05 00:22:19;;;;;;;10.73;2.60;;;6.50;99.90;;;;;;5070558;28;20020;-73
2021/05/05 00:24:45;;;;;;;5.57;1.38;;;6.60;99.90;;;;;;5071844;28;20016;-72
2021/05/05 00:27:10;;;;;;;7.03;1.90;;;6.60;99.90;;;;;;5072267;28;20027;-72
2021/05/05 00:29:36;;;;;;;8.45;1.45;;;6.60;99.90;;;;;;5070905;28;20481;-72
2021/05/05 00:32:02;;;;;;;14.25;2.05;;;6.70;99.90;;;;;;5071527;28;20534;-72
2021/05/05 00:34:27;;;;;;;5.22;1.67;;;6.60;99.90;;;;;;5071353;28;20549;-73
2021/05/05 00:36:53;;;;;;;4.65;1.70;;;6.70;99.90;;;;;;5070899;28;20029;-72
2021/05/05 00:39:19;;;;;;;3.80;2.00;;;6.70;99.90;;;;;;5071393;28;20017;-72
2021/05/05 00:41:44;;;;;;;11.00;1.73;;;6.70;99.90;;;;;;5071423;28;20073;-72
2021/05/05 00:44:10;;;;;;;4.75;2.08;;;6.70;99.90;;;;;;5070761;28;20495;-72
2021/05/05 00:46:36;;;;;;;7.38;2.28;;;6.70;99.90;;;;;;5071248;28;20048;-72
2021/05/05 00:49:01;;;;;;;3.92;1.65;;;6.80;99.90;;;;;;5074775;28;20560;-73
2021/05/05 00:51:27;;;;;;;8.80;2.60;;;6.70;99.90;;;;;;5074183;28;20036;-72
2021/05/05 00:53:52;;;;;;;11.23;2.53;;;6.70;99.90;;;;;;5075146;28;20074;-72
2021/05/05 00:56:18;;;;;;;9.88;2.35;;;6.70;99.90;;;;;;5074909;28;20389;-72
2021/05/05 00:58:44;;;;;;;7.25;3.33;;;6.70;99.90;;;;;;5074577;28;20024;-72
2021/05/05 01:01:10;;;;;;;9.07;2.13;;;6.70;99.90;;;;;;5075069;28;20024;-73
2021/05/05 01:03:35;;;;;;;12.07;2.45;;;6.80;99.90;;;;;;5074290;28;20031;-72
2021/05/05 01:06:02;;;;;;;6.30;1.70;;;6.80;99.90;;;;;;5074613;28;20428;-73
2021/05/05 01:08:29;;;;;;;8.43;2.30;;;6.90;99.90;;;;;;5074502;28;20041;-73
2021/05/05 01:10:54;;;;;;;5.57;1.83;;;6.80;99.90;;;;;;5074304;28;20123;-73
2021/05/05 01:13:20;;;;;;;6.72;2.67;;;6.90;99.90;;;;;;5074732;28;20048;-73
2021/05/05 01:15:46;;;;;;;3.33;1.08;;;7.00;99.90;;;;;;5074843;28;20052;-73
2021/05/05 01:18:11;;;;;;;5.05;1.27;;;6.90;99.90;;;;;;5073934;28;20020;-72
2021/05/05 01:20:38;;;;;;;7.45;1.20;;;6.80;99.90;;;;;;5074343;28;20016;-72
2021/05/05 01:23:04;;;;;;;5.65;1.25;;;6.70;99.90;;;;;;5074704;28;20067;-72
2021/05/05 01:25:30;;;;;;;5.80;1.38;;;6.60;99.90;;;;;;5073742;28;20035;-72
2021/05/05 01:27:55;;;;;;;6.35;1.75;;;6.50;99.90;;;;;;5074509;28;20016;-72
2021/05/05 01:30:23;;;;;;;6.95;1.63;;;6.40;99.90;;;;;;5074922;28;20036;-71
2021/05/05 01:32:49;;;;;;;8.45;1.88;;;6.30;99.90;;;;;;5072789;28;20171;-70
2021/05/05 01:35:17;;;;;;;10.15;2.47;;;6.30;99.90;;;;;;5073795;28;20016;-71
2021/05/05 01:37:43;;;;;;;11.52;2.10;;;6.20;99.90;;;;;;5074790;28;20027;-70
2021/05/05 01:40:12;;;;;;;9.65;2.20;;;6.20;99.90;;;;;;5073489;28;20017;-72
2021/05/05 01:42:38;;;;;;;9.75;2.75;;;6.10;99.90;;;;;;5074411;28;20039;-72
2021/05/05 01:45:05;;;;;;;13.80;3.63;;;6.20;99.90;;;;;;5073936;28;20033;-73
2021/05/05 01:47:30;;;;;;;9.15;3.15;;;6.10;99.90;;;;;;5073343;28;20361;-72
2021/05/05 01:49:56;;;;;;;17.15;2.67;;;6.10;99.90;;;;;;5074269;28;20027;-71
2021/05/05 01:52:21;;;;;;;16.33;3.00;;;6.20;99.90;;;;;;5073752;28;20369;-72
2021/05/05 01:54:47;;;;;;;12.65;3.25;;;6.20;99.90;;;;;;5073406;28;20469;-71
2021/05/05 01:57:28;;;;;;;9.23;3.20;;;6.30;99.90;;;;;;5073590;28;20476;-73
2021/05/05 01:59:54;;;;;;;;;;;6.30;99.90;;;;;;5072900;28;20033;-72
2021/05/05 02:02:19;;;;;;;10.98;2.75;;;6.30;99.90;;;;;;5073374;28;20657;-72
2021/05/05 02:04:45;;;;;;;9.25;2.30;;;6.30;99.90;;;;;;5073917;28;20472;-72
2021/05/05 02:07:10;;;;;;;22.10;4.18;;;6.40;99.90;;;;;;5073048;28;20024;-72
2021/05/05 02:09:36;;;;;;;10.15;3.08;;;6.30;99.90;;;;;;5073535;28;20131;-70
2021/05/05 02:12:02;;;;;;;25.00;3.20;;;6.20;99.90;;;;;;5073739;28;20036;-71
2021/05/05 02:14:27;;;;;;;18.92;2.83;;;6.20;99.90;;;;;;5072730;28;20139;-70
2021/05/05 02:16:57;;;;;;;13.48;2.92;;;6.10;99.90;;;;;;5073767;28;20373;-71
2021/05/05 02:19:23;;;;;;;14.93;2.55;;;6.00;99.90;;;;;;5073300;28;20017;-73
2021/05/05 02:21:49;;;;;;;18.73;3.05;;;6.00;99.90;;;;;;5073170;28;20036;-71
2021/05/05 02:24:15;;;;;;;12.30;2.80;;;6.00;99.90;;;;;;5073091;28;20595;-71
2021/05/05 02:26:40;;;;;;;13.68;2.63;;;6.00;99.90;;;;;;5073460;28;20511;-70
2021/05/05 02:29:06;;;;;;;12.98;1.92;;;6.10;99.90;;;;;;5072581;28;20396;-72
2021/05/05 02:31:35;;;;;;;12.70;2.88;;;6.00;99.90;;;;;;5072936;28;20456;-72
2021/05/05 02:34:00;;;;;;;19.25;4.10;;;6.10;99.90;;;;;;5073950;28;20025;-72
2021/05/05 02:36:29;;;;;;;9.68;2.97;;;6.10;99.90;;;;;;5072503;28;20067;-72
2021/05/05 02:38:55;;;;;;;6.38;2.63;;;6.20;99.90;;;;;;5073485;28;20070;-72
2021/05/05 02:41:21;;;;;;;14.63;2.67;;;6.20;99.90;;;;;;5073177;28;20052;-71
2021/05/05 02:43:46;;;;;;;10.57;2.72;;;6.40;99.90;;;;;;5072365;28;20021;-70
2021/05/05 02:46:12;;;;;;;11.57;2.50;;;6.40;99.90;;;;;;5073013;28;20462;-71
2021/05/05 02:48:37;;;;;;;11.70;2.40;;;6.40;99.90;;;;;;5073217;28;20016;-71
2021/05/05 02:51:03;;;;;;;15.40;2.65;;;6.30;99.90;;;;;;5072729;28;20040;-71
2021/05/05 02:53:29;;;;;;;10.77;2.50;;;6.30;99.90;;;;;;5072776;28;20048;-71
2021/05/05 02:55:54;;;;;;;22.35;3.65;;;6.30;99.90;;;;;;5073132;28;20020;-70
2021/05/05 02:58:20;;;;;;;12.00;2.45;;;6.30;99.90;;;;;;5071732;28;20044;-71
2021/05/05 03:00:48;;;;;;;18.70;4.20;;;6.20;99.90;;;;;;5073093;28;20074;-71
2021/05/05 03:03:14;;;;;;;13.32;3.35;;;6.30;99.90;;;;;;5071731;28;20036;-71
2021/05/05 03:05:39;;;;;;;20.52;2.60;;;6.20;99.90;;;;;;5072963;28;20372;-71
2021/05/05 03:08:05;;;;;;;14.60;3.05;;;6.30;99.90;;;;;;5073093;28;20472;-71
2021/05/05 03:10:30;;;;;;;13.27;2.92;;;6.30;99.90;;;;;;5071242;28;20424;-71
2021/05/05 03:12:56;;;;;;;4.38;1.67;;;6.30;99.90;;;;;;5072453;28;20369;-71
2021/05/05 03:15:22;;;;;;;12.63;1.50;;;6.30;99.90;;;;;;5072527;28;20484;-71
2021/05/05 03:17:47;;;;;;;7.35;1.75;;;6.40;99.90;;;;;;5072171;28;20489;-71
2021/05/05 03:20:13;;;;;;;6.80;1.40;;;6.30;99.90;;;;;;5072296;28;20016;-71
2021/05/05 03:22:39;;;;;;;10.65;1.20;;;6.20;99.90;;;;;;5072796;28;20028;-71
2021/05/05 03:25:09;;;;;;;5.85;1.65;;;6.10;99.90;;;;;;5071877;28;20074;-71
2021/05/05 03:27:35;;;;;;;7.88;1.30;;;6.10;99.90;;;;;;5071904;28;20074;-71
2021/05/05 03:30:01;;;;;;;4.85;1.55;;;6.00;99.90;;;;;;5072509;28;20028;-72
2021/05/05 03:32:27;;;;;;;6.22;1.35;;;6.00;99.90;;;;;;5071065;28;20078;-71
2021/05/05 03:34:52;;;;;;;7.43;1.73;;;5.90;99.90;;;;;;5072192;28;20020;-71
2021/05/05 03:37:18;;;;;;;4.68;1.10;;;5.90;99.90;;;;;;5071932;28;20099;-71
2021/05/05 03:39:43;;;;;;;7.53;1.73;;;5.90;99.90;;;;;;5071871;28;20013;-71
2021/05/05 03:42:09;;;;;;;6.55;1.90;;;5.90;99.90;;;;;;5072376;28;20114;-72
2021/05/05 03:44:35;;;;;;;6.80;2.15;;;5.90;99.90;;;;;;5071591;28;20051;-72
2021/05/05 03:47:00;;;;;;;5.65;1.92;;;5.90;99.90;;;;;;5071717;28;20032;-71
2021/05/05 03:49:26;;;;;;;8.18;2.53;;;5.80;99.90;;;;;;5071403;28;20025;-71
2021/05/05 03:51:52;;;;;;;5.82;1.83;;;5.80;99.90;;;;;;5071670;28;20036;-71
2021/05/05 03:54:18;;;;;;;3.60;1.35;;;5.70;99.90;;;;;;5070881;28;20119;-72
2021/05/05 03:56:44;;;;;;;11.23;1.80;;;5.80;99.90;;;;;;5071684;28;20040;-72
2021/05/05 03:59:09;;;;;;;4.80;2.15;;;5.90;99.90;;;;;;5072057;28;20087;-72
2021/05/05 04:01:35;;;;;;;4.85;1.38;;;5.80;99.90;;;;;;5070718;28;20468;-72
2021/05/05 04:04:01;;;;;;;4.40;1.17;;;5.90;99.90;;;;;;5071806;28;20029;-72
2021/05/05 04:06:26;;;;;;;4.10;1.10;;;5.80;99.90;;;;;;5071136;28;20078;-73
2021/05/05 04:08:52;;;;;;;9.48;1.00;;;5.80;99.90;;;;;;5071383;28;20066;-72
2021/05/05 04:11:18;;;;;;;5.40;1.15;;;5.70;99.90;;;;;;5071158;28;20070;-72
2021/05/05 04:13:44;;;;;;;2.22;0.90;;;5.70;99.90;;;;;;5071060;28;20048;-72
2021/05/05 04:16:09;;;;;;;2.85;1.35;;;5.60;99.90;;;;;;5071903;28;20063;-72
2021/05/05 04:18:35;;;;;;;8.43;1.80;;;5.60;99.90;;;;;;5071315;28;20017;-72
2021/05/05 04:21:06;;;;;;;2.78;1.65;;;5.60;99.90;;;;;;5070949;28;20025;-72
2021/05/05 04:23:33;;;;;;;;;;;5.60;99.90;;;;;;5074695;28;20078;-72
2021/05/05 04:25:59;;;;;;;5.85;2.40;;;5.50;99.90;;;;;;5075565;28;19904;-72
2021/05/05 04:28:25;;;;;;;4.60;1.52;;;5.60;99.90;;;;;;5074709;28;20031;-72
2021/05/05 04:30:50;;;;;;;4.07;2.38;;;5.70;99.90;;;;;;5075142;28;20131;-72
2021/05/05 04:33:16;;;;;;;2.30;1.40;;;5.70;99.90;;;;;;5075395;28;20115;-72
2021/05/05 04:35:41;;;;;;;1.88;1.10;;;5.80;99.90;;;;;;5074644;28;20417;-72
2021/05/05 04:38:07;;;;;;;4.50;1.50;;;5.80;99.90;;;;;;5075422;28;20426;-72
2021/05/05 04:40:33;;;;;;;4.72;1.40;;;5.80;99.90;;;;;;5074604;28;20093;-72
2021/05/05 04:42:59;;;;;;;3.92;1.20;;;5.70;99.90;;;;;;5074477;28;20016;-72
2021/05/05 04:45:24;;;;;;;5.43;1.40;;;5.70;99.90;;;;;;5074902;28;20032;-72
2021/05/05 04:47:50;;;;;;;3.22;1.40;;;5.80;99.90;;;;;;5075036;28;20032;-72
2021/05/05 04:50:16;;;;;;;2.20;1.30;;;5.90;99.90;;;;;;5074120;28;20105;-72
2021/05/05 04:52:41;;;;;;;4.30;1.55;;;5.90;99.90;;;;;;5075049;28;20036;-72
2021/05/05 04:55:08;;;;;;;3.70;1.23;;;6.00;99.90;;;;;;5074890;28;20021;-72
2021/05/05 04:57:34;;;;;;;1.83;1.20;;;6.00;99.90;;;;;;5073954;28;20056;-72
2021/05/05 05:00:00;;;;;;;8.45;1.92;;;6.00;99.90;;;;;;5074942;28;20380;-70
2021/05/05 05:02:26;;;;;;;3.17;1.20;;;6.10;99.90;;;;;;5074602;28;20115;-72
2021/05/05 05:04:51;;;;;;;5.05;1.23;;;6.00;99.90;;;;;;5074022;28;20434;-73
2021/05/05 05:07:17;;;;;;;6.05;1.25;;;5.90;99.90;;;;;;5074356;28;20031;-72
2021/05/05 05:09:43;;;;;;;8.05;1.70;;;5.80;99.90;;;;;;5074608;28;20029;-72
2021/05/05 05:12:09;;;;;;;8.38;1.38;;;6.20;99.90;;;;;;5074245;28;20098;-72
2021/05/05 05:14:38;;;;;;;17.02;2.15;;;5.80;99.90;;;;;;5074494;28;20029;-72
2021/05/05 05:17:04;;;;;;;4.28;1.75;;;5.70;99.90;;;;;;5073767;28;20028;-73
2021/05/05 05:19:29;;;;;;;6.68;1.60;;;5.60;99.90;;;;;;5074365;28;20154;-72
2021/05/05 05:21:55;;;;;;;8.82;1.98;;;5.60;99.90;;;;;;5074350;28;20097;-71
2021/05/05 05:24:20;;;;;;;6.28;2.05;;;5.70;99.90;;;;;;5073542;28;20119;-72
2021/05/05 05:26:46;;;;;;;13.45;2.60;;;5.60;99.90;;;;;;5074776;28;20037;-72
2021/05/05 05:29:12;;;;;;;6.50;1.98;;;5.70;99.90;;;;;;5074448;28;20052;-72
2021/05/05 05:31:37;;;;;;;9.05;2.40;;;5.70;99.90;;;;;;5073800;28;20422;-71
2021/05/05 05:34:03;;;;;;;10.00;3.15;;;5.70;99.90;;;;;;5073054;28;20108;-71
2021/05/05 05:36:29;;;;;;;8.65;2.55;;;5.80;99.90;;;;;;5074143;28;20040;-72
2021/05/05 05:38:54;;;;;;;7.78;2.42;;;5.80;99.90;;;;;;5073532;28;20027;-72
2021/05/05 05:41:20;;;;;;;10.07;2.20;;;5.80;99.90;;;;;;5073781;28;20040;-73
2021/05/05 05:43:46;;;;;;;18.40;2.70;;;5.80;99.90;;;;;;5073251;28;20135;-72
2021/05/05 05:46:12;;;;;;;10.05;2.17;;;5.80;99.90;;;;;;5073220;28;20123;-71
2021/05/05 05:48:37;;;;;;;10.38;3.10;;;5.80;99.90;;;;;;5074291;28;20472;-72
2021/05/05 05:51:03;;;;;;;16.23;3.60;;;5.80;99.90;;;;;;5074581;28;20126;-71
2021/05/05 05:53:29;;;;;;;14.88;2.75;;;5.90;99.90;;;;;;5074063;28;20119;-72
2021/05/05 05:55:55;;;;;;;18.92;3.45;;;6.00;99.90;;;;;;5074162;28;20112;-72
2021/05/05 05:58:20;;;;;;;11.57;3.50;;;6.00;99.90;;;;;;5073614;28;20315;-72
2021/05/05 06:00:46;;;;;;;14.20;2.75;;;6.20;99.90;;;;;;5073292;28;20138;-72
2021/05/05 06:03:12;;;;;;;7.20;2.78;;;6.30;99.90;;;;;;5073663;28;20024;-72
2021/05/05 06:05:37;;;;;;;8.48;2.83;;;6.40;99.90;;;;;;5073584;28;20012;-71
2021/05/05 06:08:04;;;;;;;14.20;2.53;;;6.60;99.90;;;;;;5072798;28;20031;-73
2021/05/05 06:10:30;;;;;;;11.43;2.40;;;6.60;99.90;;;;;;5073599;28;20091;-71
2021/05/05 06:12:55;;;;;;;15.15;2.47;;;6.70;99.90;;;;;;5073937;28;20040;-70
2021/05/05 06:15:21;;;;;;;13.38;2.40;;;6.80;99.90;;;;;;5072479;28;20016;-71
2021/05/05 06:17:47;;;;;;;9.98;2.33;;;6.80;99.90;;;;;;5074241;28;20028;-72
2021/05/05 06:20:14;;;;;;;18.73;2.95;;;6.90;99.90;;;;;;5072692;28;20070;-72
2021/05/05 06:22:39;;;;;;;7.47;2.30;;;7.00;99.90;;;;;;5073820;28;20658;-71
2021/05/05 06:25:07;;;;;;;11.57;2.45;;;7.20;99.90;;;;;;5073467;28;20534;-72
2021/05/05 06:27:33;;;;;;;10.55;2.80;;;7.40;99.90;;;;;;5072801;28;20406;-72
2021/05/05 06:29:59;;;;;;;14.20;2.63;;;7.60;99.90;;;;;;5073467;28;20029;-72
2021/05/05 06:32:25;;;;;;;9.90;2.33;;;7.70;99.90;;;;;;5072576;28;20025;-72
2021/05/05 06:34:54;;;;;;;7.63;2.03;;;7.70;99.90;;;;;;5072398;28;20032;-72
2021/05/05 06:37:20;;;;;;;8.88;2.30;;;7.60;99.90;;;;;;5072855;28;20107;-71
2021/05/05 06:39:45;;;;;;;9.02;1.92;;;7.40;99.90;;;;;;5073156;28;20044;-71
2021/05/05 06:42:11;;;;;;;2.95;1.55;;;7.10;99.90;;;;;;5072267;28;20068;-71
2021/05/05 06:44:37;;;;;;;5.90;1.58;;;6.90;99.90;;;;;;5072490;28;20036;-72
2021/05/05 06:47:02;;;;;;;6.28;2.03;;;6.80;99.90;;;;;;5072843;28;20024;-72
2021/05/05 06:49:29;;;;;;;4.38;1.88;;;6.70;99.90;;;;;;5071814;28;20037;-72
2021/05/05 06:51:55;;;;;;;4.18;1.30;;;6.80;99.90;;;;;;5072945;28;20029;-72
2021/05/05 06:54:20;;;;;;;2.40;1.13;;;6.70;99.90;;;;;;5072294;28;20074;-72
2021/05/05 06:56:46;;;;;;;2.47;0.50;;;6.80;99.90;;;;;;5071959;28;20120;-72
2021/05/05 06:59:12;;;;;;;1.65;0.40;;;6.80;99.90;;;;;;5072726;28;20029;-72
2021/05/05 07:01:39;;;;;;;2.65;0.65;;;6.80;99.90;;;;;;5072545;28;20052;-72
2021/05/05 07:04:06;;;;;;;3.13;0.80;;;6.90;99.90;;;;;;5072065;28;20055;-72
2021/05/05 07:06:32;;;;;;;3.45;0.70;;;7.00;99.90;;;;;;5072382;28;20094;-72
2021/05/05 07:08:59;;;;;;;2.33;0.63;;;7.10;99.90;;;;;;5072439;28;20131;-72
2021/05/05 07:11:26;;;;;;;5.63;1.10;;;7.10;99.90;;;;;;5071392;28;20041;-72
2021/05/05 07:13:52;;;;;;;5.05;0.98;;;7.20;99.90;;;;;;5072375;28;20029;-72
2021/05/05 07:16:19;;;;;;;1.52;0.60;;;7.30;99.90;;;;;;5072353;28;20051;-73
2021/05/05 07:18:44;;;;;;;3.03;0.70;;;7.30;99.90;;;;;;5071508;28;20046;-72
2021/05/05 07:21:10;;;;;;;2.22;0.63;;;7.20;99.90;;;;;;5072532;28;20017;-72
2021/05/05 07:23:36;;;;;;;2.63;0.85;;;6.90;99.90;;;;;;5071453;28;20488;-71
2021/05/05 07:26:01;;;;;;;3.22;0.90;;;6.80;99.90;;;;;;5072718;28;20111;-71
2021/05/05 07:28:27;;;;;;;8.18;2.10;;;6.70;99.90;;;;;;5072254;28;20071;-70
2021/05/05 07:30:56;;;;;;;6.32;1.48;;;6.60;99.90;;;;;;5071854;28;20020;-71
2021/05/05 07:33:22;;;;;;;3.03;0.90;;;6.60;99.90;;;;;;5072007;28;20028;-71
2021/05/05 07:35:52;;;;;;;6.72;1.23;;;6.60;99.90;;;;;;5072199;28;20404;-72
2021/05/05 07:38:31;;;;;;;7.75;1.52;;;6.80;99.90;;;;;;5071865;28;20025;-72
2021/05/05 07:46:19;;;;;;;10.17;1.50;;;7.00;99.90;;;;;;5071763;28;20035;-71
2021/05/05 07:48:54;;;;;;;5.25;1.48;;;7.00;99.90;;;;;;5071078;28;20278;-71
2021/05/05 07:51:20;;;;;;;12.15;1.92;;;6.90;99.90;;;;;;5071926;28;20392;-71
2021/05/05 07:53:46;;;;;;;11.85;1.77;;;6.90;99.90;;;;;;5071703;28;20016;-71
2021/05/05 07:56:11;;;;;;;14.57;2.40;;;7.00;99.90;;;;;;5072227;28;20078;-72
2021/05/05 07:58:37;;;;;;;17.45;1.98;;;7.10;99.90;;;;;;5070986;28;20025;-72
2021/05/05 08:01:03;;;;;;;8.90;1.80;;;7.20;99.90;;;;;;5072183;28;20376;-71
2021/05/05 08:03:29;;;;;;;8.20;1.40;;;7.20;99.90;;;;;;5072057;28;20506;-71
2021/05/05 08:05:55;;;;;;;6.18;1.48;;;7.10;99.90;;;;;;5071483;28;20036;-71
2021/05/05 08:08:21;;;;;;;7.15;1.85;;;7.00;99.90;;;;;;5071891;28;20105;-71
2021/05/05 08:10:46;;;;;;;11.52;1.70;;;7.00;99.90;;;;;;5072280;28;20103;-71
2021/05/05 08:13:12;;;;;;;3.97;1.02;;;7.10;99.90;;;;;;5071775;28;20048;-71
2021/05/05 08:15:38;;;;;;;17.63;1.73;;;7.20;99.90;;;;;;5072633;28;20384;-72
2021/05/05 08:18:05;;;;;;;11.38;2.05;;;7.50;99.90;;;;;;5072322;28;20035;-72
2021/05/05 08:20:34;;;;;;;9.57;2.25;;;7.60;99.90;;;;;;5070988;28;20024;-71
2021/05/05 08:23:00;;;;;;;8.60;1.38;;;7.70;99.90;;;;;;5071925;28;20028;-72
2021/05/05 08:25:28;;;;;;;10.43;1.42;;;7.80;99.90;;;;;;5071570;28;20032;-72
2021/05/05 08:27:54;;;;;;;6.60;1.55;;;8.00;99.90;;;;;;5071395;28;20354;-73
2021/05/05 08:30:20;;;;;;;6.78;1.65;;;8.10;99.90;;;;;;5071907;28;20031;-73
2021/05/05 08:32:46;;;;;;;6.78;1.33;;;8.30;99.90;;;;;;5072246;28;20032;-73
2021/05/05 08:35:12;;;;;;;6.35;1.08;;;8.20;99.90;;;;;;5071426;28;20035;-71
2021/05/05 08:37:38;;;;;;;9.82;1.55;;;8.80;99.90;;;;;;5072020;28;20075;-73
2021/05/05 08:40:06;;;;;;;14.85;2.05;;;8.30;99.90;;;;;;5071954;28;20534;-72
2021/05/05 08:42:31;;;;;;;12.27;2.50;;;8.40;99.90;;;;;;5070983;28;20132;-72
2021/05/05 08:44:58;;;;;;;6.20;1.73;;;8.50;99.90;;;;;;5071902;28;20048;-72
2021/05/05 08:47:23;;;;;;;9.88;2.97;;;8.60;99.90;;;;;;5071304;28;20104;-74
2021/05/05 08:49:53;;;;;;;12.63;2.28;;;8.80;99.90;;;;;;5070916;28;20111;-73
2021/05/05 08:52:19;;;;;;;13.50;2.13;;;8.90;99.90;;;;;;5071609;28;20043;-72
2021/05/05 08:54:46;;;;;;;8.10;2.22;;;8.90;99.90;;;;;;5071194;28;20028;-73
2021/05/05 08:57:14;;;;;;;10.80;1.80;;;8.90;99.90;;;;;;5070745;28;20421;-72
2021/05/05 08:59:39;;;;;;;8.40;2.35;;;8.90;99.90;;;;;;5071353;28;20107;-72
2021/05/05 09:02:05;;;;;;;11.13;1.77;;;9.10;99.90;;;;;;5070768;28;20492;-72
2021/05/05 09:04:32;;;;;;;9.50;1.60;;;9.20;99.90;;;;;;5071062;28;20032;-72
2021/05/05 09:06:59;;;;;;;7.43;1.63;;;9.10;99.90;;;;;;5071054;28;20025;-72
2021/05/05 09:09:32;;;;;;;5.00;1.15;;;8.80;99.90;;;;;;5071180;28;20027;-70
2021/05/05 09:11:58;;;;;;;12.65;2.67;;;8.50;99.90;;;;;;5074698;28;20043;-71
2021/05/05 09:14:27;;;;;;;15.13;1.92;;;8.30;99.90;;;;;;5074653;28;20021;-71
2021/05/05 09:16:53;;;;;;;4.68;1.02;;;8.30;99.90;;;;;;5073864;28;20123;-72
2021/05/05 09:19:19;;;;;;;9.52;2.13;;;8.40;99.90;;;;;;5074482;28;20028;-71
2021/05/05 09:21:49;;;;;;;5.38;1.50;;;8.50;99.90;;;;;;5074355;28;20082;-72
2021/05/05 09:24:22;;;;;;;9.03;1.43;;;8.80;99.90;;;;;;5073643;28;20468;-72
2021/05/05 09:26:57;;;;;;;6.10;1.00;;;9.00;99.90;;;;;;5074681;28;20773;-72
2021/05/05 09:29:41;;;;;;;11.57;1.75;;;9.10;99.90;;;;;;5062083;28;20028;-72
2021/05/05 09:32:08;;;;;;;8.60;1.50;;;9.10;99.90;;;;;;5073997;28;20047;-72
2021/05/05 09:34:34;;;;;;;7.72;1.67;;;9.20;99.90;;;;;;5074346;28;20020;-71
2021/05/05 09:37:03;;;;;;;18.33;2.28;;;9.10;99.90;;;;;;5074664;28;20027;-72
2021/05/05 09:39:34;;;;;;;7.25;1.77;;;9.10;99.90;;;;;;5075769;28;20023;-73
2021/05/05 09:42:00;;;;;;;9.15;1.67;;;9.10;99.90;;;;;;5074899;28;20123;-72
2021/05/05 09:44:26;;;;;;;9.88;1.50;;;9.20;99.90;;;;;;5075214;28;20099;-72
2021/05/05 09:46:58;;;;;;;7.45;1.63;;;9.40;99.90;;;;;;5075038;28;20112;-71
2021/05/05 09:49:34;;;;;;;11.73;1.55;;;9.50;99.90;;;;;;5073738;28;20494;-72
2021/05/05 09:52:04;;;;;;;3.05;1.63;;;9.60;99.90;;;;;;5060729;28;20546;-74
2021/05/05 09:54:30;;;;;;;8.10;1.40;;;9.70;99.90;;;;;;5073868;28;20032;-73
2021/05/05 09:57:17;;;;;;;10.88;1.40;;;9.70;99.90;;;;;;5073842;28;20016;-73
2021/05/05 10:00:15;;;;;;;5.00;1.10;;;9.70;99.90;;;;;;5074056;28;20407;-73
2021/05/05 10:02:59;;;;;;;4.80;1.33;;;9.80;99.90;;;;;;5075822;28;20021;-73
2021/05/05 10:05:31;;;;;;;3.85;1.13;;;9.80;99.90;;;;;;5073208;28;20025;-73
2021/05/05 10:08:06;;;;;;;4.93;1.27;;;9.80;99.90;;;;;;5074145;28;20472;-73
2021/05/05 10:10:39;;;;;;;11.95;1.60;;;9.90;99.90;;;;;;5073695;28;20028;-73
2021/05/05 10:13:07;;;;;;;7.13;1.48;;;9.80;99.90;;;;;;5073075;28;20032;-73
2021/05/05 10:15:36;;;;;;;14.88;1.65;;;9.80;99.90;;;;;;5073299;28;20048;-73
2021/05/05 10:18:03;;;;;;;8.85;1.58;;;9.70;99.90;;;;;;5073590;28;20056;-73
2021/05/05 10:20:30;;;;;;;15.48;3.00;;;9.60;99.90;;;;;;5072288;28;20054;-73
2021/05/05 10:22:58;;;;;;;7.05;1.67;;;9.40;99.90;;;;;;5073620;28;20020;-73
2021/05/05 10:25:24;;;;;;;9.93;1.83;;;9.20;99.90;;;;;;5073147;28;20029;-73
2021/05/05 10:27:51;;;;;;;10.27;2.05;;;9.10;99.90;;;;;;5073061;28;20073;-73
2021/05/05 10:30:30;;;;;;;8.98;2.08;;;8.90;99.90;;;;;;5073079;28;20036;-73
2021/05/05 10:32:56;;;;;;;8.32;2.80;;;8.90;99.90;;;;;;5073468;28;20033;-72
2021/05/05 10:35:25;;;;;;;7.32;1.45;;;8.60;99.90;;;;;;5072383;28;20032;-72
2021/05/05 10:38:00;;;;;;;7.82;1.58;;;8.30;99.90;;;;;;5073427;28;20020;-72
2021/05/05 10:40:28;;;;;;;7.07;1.42;;;7.90;99.90;;;;;;5072393;28;20033;-72
2021/05/05 10:42:59;;;;;;;10.32;3.65;;;7.70;99.90;;;;;;5073318;28;20036;-72
2021/05/05 10:45:37;;;;;;;12.98;2.15;;;7.70;99.90;;;;;;5072689;28;20017;-71
2021/05/05 10:48:11;;;;;;;17.33;2.05;;;7.70;99.90;;;;;;5072617;28;20025;-71
2021/05/05 10:50:51;;;;;;;13.48;2.72;;;7.80;99.90;;;;;;5072951;28;20031;-71
2021/05/05 10:53:22;;;;;;;5.30;2.03;;;7.80;99.90;;;;;;5072613;28;20039;-72
2021/05/05 10:55:50;;;;;;;7.68;1.55;;;8.00;99.90;;;;;;5072450;28;20024;-72
2021/05/05 10:58:23;;;;;;;7.78;2.15;;;8.00;99.90;;;;;;5072641;28;20051;-71
2021/05/05 11:00:54;;;;;;;12.68;2.50;;;7.70;99.90;;;;;;5072817;28;20021;-72
2021/05/05 11:03:57;;;;;;;18.55;2.78;;;8.10;99.90;;;;;;5071754;28;20036;-73
2021/05/05 11:06:35;;;;;;;8.27;1.52;;;8.20;99.90;;;;;;5010813;28;20018;-72
2021/05/05 11:09:10;;;;;;;8.68;1.42;;;8.40;99.90;;;;;;5010220;28;20025;-72
2021/05/05 11:11:40;;;;;;;3.85;1.35;;;8.50;99.90;;;;;;5036753;28;20082;-72
2021/05/05 11:14:07;;;;;;;15.45;2.85;;;8.70;99.90;;;;;;5073326;28;20025;-73
2021/05/05 11:17:02;;;;;;;10.75;1.67;;;8.90;99.90;;;;;;5071911;28;20445;-72
2021/05/05 11:19:42;;;;;;;20.60;4.35;;;9.20;99.90;;;;;;5061616;28;20028;-73
2021/05/05 11:22:18;;;;;;;6.68;1.95;;;9.50;99.90;;;;;;5072280;28;20020;-72
2021/05/05 11:24:48;;;;;;;17.70;2.92;;;9.40;99.90;;;;;;5072017;28;20033;-72
2021/05/05 11:27:15;;;;;;;7.13;1.70;;;9.20;99.90;;;;;;5072682;28;20028;-72
2021/05/05 11:29:44;;;;;;;17.02;2.60;;;9.00;99.90;;;;;;5072011;28;20251;-72
2021/05/05 11:32:22;;;;;;;14.45;1.75;;;9.00;99.90;;;;;;5071549;28;20044;-71
2021/05/05 11:34:48;;;;;;;13.00;2.10;;;9.10;99.90;;;;;;5072584;28;20055;-70
2021/05/05 11:37:21;;;;;;;17.52;4.05;;;9.20;99.90;;;;;;5071222;28;20469;-72
2021/05/05 11:39:57;;;;;;;14.80;3.28;;;9.40;99.90;;;;;;5072238;28;20046;-72
2021/05/05 11:42:36;;;;;;;11.07;2.25;;;9.40;99.90;;;;;;5071856;28;20103;-73
2021/05/05 11:45:07;;;;;;;18.00;3.42;;;9.40;99.90;;;;;;5071425;28;20024;-72
2021/05/05 11:47:39;;;;;;;10.52;3.78;;;9.60;99.90;;;;;;5073572;28;20117;-73
2021/05/05 11:50:14;;;;;;;18.15;2.60;;;9.80;99.90;;;;;;5074053;28;20020;-73
2021/05/05 11:52:44;;;;;;;5.05;1.90;;;10.00;99.90;;;;;;5071839;28;20042;-72
2021/05/05 11:55:09;;;;;;;7.53;1.67;;;10.10;99.90;;;;;;5072421;28;20039;-72
2021/05/05 11:57:37;;;;;;;9.55;3.00;;;10.00;99.90;;;;;;5072136;28;20029;-73
2021/05/05 12:00:13;;;;;;;17.55;2.88;;;9.80;99.90;;;;;;5071157;28;20044;-73
2021/05/05 12:02:55;;;;;;;12.55;3.05;;;9.70;99.90;;;;;;5072131;28;20111;-73
2021/05/05 12:05:22;;;;;;;14.55;2.55;;;9.80;99.90;;;;;;5071160;28;20103;-73
2021/05/05 12:08:03;;;;;;;8.05;2.10;;;10.00;99.90;;;;;;5072051;28;20107;-72
2021/05/05 12:10:56;;;;;;;14.38;3.25;;;10.00;99.90;;;;;;5071460;28;20021;-73
2021/05/05 12:13:28;;;;;;;8.00;2.35;;;10.30;99.90;;;;;;5064433;28;20435;-73
2021/05/05 12:16:10;;;;;;;11.40;3.25;;;10.40;99.90;;;;;;5072383;28;20376;-72
2021/05/05 12:18:45;;;;;;;15.23;2.03;;;10.30;99.90;;;;;;5071592;28;20025;-73
2021/05/05 12:21:20;;;;;;;12.65;2.08;;;10.20;99.90;;;;;;5071456;28;20032;-73
2021/05/05 12:23:51;;;;;;;10.68;3.35;;;10.20;99.90;;;;;;5071844;28;20112;-74
2021/05/05 12:26:25;;;;;;;17.95;2.70;;;10.10;99.90;;;;;;5070775;28;20031;-73
2021/05/05 12:28:57;;;;;;;12.98;2.08;;;10.10;99.90;;;;;;5071611;28;20032;-73
2021/05/05 12:31:25;;;;;;;14.10;1.73;;;9.90;99.90;;;;;;5071428;28;20068;-73
2021/05/05 12:33:52;;;;;;;13.48;4.53;;;9.80;99.90;;;;;;5070947;28;20059;-73
2021/05/05 12:36:23;;;;;;;16.08;3.10;;;9.70;99.90;;;;;;5072085;28;20033;-75
2021/05/05 12:38:53;;;;;;;6.20;2.38;;;9.90;99.90;;;;;;5071839;28;20078;-73
2021/05/05 12:41:24;;;;;;;9.82;3.50;;;10.10;99.90;;;;;;5070314;28;20044;-76
2021/05/05 12:43:54;;;;;;;6.30;2.47;;;10.40;99.90;;;;;;5073412;28;20460;-73
2021/05/05 12:46:54;;;;;;;5.23;2.60;;;10.40;99.90;;;;;;5075495;28;20024;-74
2021/05/05 12:49:25;;;;;;;8.80;2.77;;;10.50;99.90;;;;;;5075048;28;20056;-73
2021/05/05 12:51:51;;;;;;;15.63;2.30;;;10.40;99.90;;;;;;5075468;28;20369;-75
2021/05/05 12:54:26;;;;;;;10.25;2.50;;;10.40;99.90;;;;;;5074681;28;20159;-74
2021/05/05 12:56:53;;;;;;;14.40;2.28;;;10.70;99.90;;;;;;5075306;28;20490;-73
2021/05/05 12:59:25;;;;;;;9.40;1.95;;;10.80;99.90;;;;;;5075227;28;20020;-74
2021/05/05 13:02:11;;;;;;;10.88;2.83;;;10.80;99.90;;;;;;5074841;28;20032;-74